sensor_id;sensor_type;location;lat;lon;timestamp;temperature;humidity
29237;DHT22;16266;50.866;4.398;2024-01-15T00:01:29;3.30;99.90
29237;DHT22;16266;50.866;4.398;2024-01-15T00:03:55;3.30;99.90
29237;DHT22;16266;50.866;4.398;2024-01-15T00:06:21;3.40;99.90
29237;DHT22;16266;50.866;4.398;2024-01-15T00:08:47;3.40;99.90
29237;DHT22;16266;50.866;4.398;2024-01-15T00:11:12;3.30;99.90
29237;DHT22;16266;50.866;4.398;2024-01-15T00:13:38;3.40;99.90
29237;DHT22;16266;50.866;4.398;2024-01-15T00:16:04;3.40;99.90
29237;DHT22;16266;50.866;4.398;2024-01-15T00:18:30;3.40;99.90
29237;DHT22;16266;50.866;4.398;2024-01-15T00:20:56;3.40;99.90
29237;DHT22;16266;50.866;4.398;2024-01-15T00:23:22;3.40;99.90
29237;DHT22;16266;50.866;4.398;2024-01-15T00:25:48;3.50;99.90
29237;DHT22;16266;50.866;4.398;2024-01-15T00:28:14;3.40;99.90
29237;DHT22;16266;50.866;4.398;2024-01-15T00:30:39;3.30;99.90
29237;DHT22;16266;50.866;4.398;2024-01-15T00:33:05;3.30;99.90
29237;DHT22;16266;50.866;4.398;2024-01-15T00:35:31;3.30;99.90
29237;DHT22;16266;50.866;4.398;2024-01-15T00:37:56;3.20;99.90
29237;DHT22;16266;50.866;4.398;2024-01-15T00:40:22;3.10;99.90
29237;DHT22;16266;50.866;4.398;2024-01-15T00:42:48;3.00;99.90
29237;DHT22;16266;50.866;4.398;2024-01-15T00:45:13;3.10;99.90
29237;DHT22;16266;50.866;4.398;2024-01-15T00:47:39;3.20;99.90
29237;DHT22;16266;50.866;4.398;2024-01-15T00:50:05;3.30;99.90
29237;DHT22;16266;50.866;4.398;2024-01-15T00:52:31;3.40;99.90
29237;DHT22;16266;50.866;4.398;2024-01-15T00:54:57;3.50;99.90
29237;DHT22;16266;50.866;4.398;2024-01-15T00:57:23;3.60;99.90
29237;DHT22;16266;50.866;4.398;2024-01-15T00:59:49;3.70;99.90
29237;DHT22;16266;50.866;4.398;2024-01-15T01:02:14;3.80;99.90
29237;DHT22;16266;50.866;4.398;2024-01-15T01:04:40;3.80;99.90
29237;DHT22;16266;50.866;4.398;2024-01-15T01:07:06;4.00;99.90
29237;DHT22;16266;50.866;4.398;2024-01-15T01:09:32;3.80;99.90
29237;DHT22;16266;50.866;4.398;2024-01-15T01:11:57;3.90;99.90
29237;DHT22;16266;50.866;4.398;2024-01-15T01:14:23;4.00;99.90
29237;DHT22;16266;50.866;4.398;2024-01-15T01:16:49;4.10;99.90
29237;DHT22;16266;50.866;4.398;2024-01-15T01:19:15;4.10;99.90
29237;DHT22;16266;50.866;4.398;2024-01-15T01:21:40;4.20;99.90
29237;DHT22;16266;50.866;4.398;2024-01-15T01:24:06;4.10;99.90
29237;DHT22;16266;50.866;4.398;2024-01-15T01:26:32;4.10;99.90
29237;DHT22;16266;50.866;4.398;2024-01-15T01:28:57;4.00;99.90
29237;DHT22;16266;50.866;4.398;2024-01-15T01:31:24;3.90;99.90
29237;DHT22;16266;50.866;4.398;2024-01-15T01:33:49;3.90;99.90
29237;DHT22;16266;50.866;4.398;2024-01-15T01:36:15;4.00;99.90
29237;DHT22;16266;50.866;4.398;2024-01-15T01:38:41;3.90;99.90
29237;DHT22;16266;50.866;4.398;2024-01-15T01:41:07;3.90;99.90
29237;DHT22;16266;50.866;4.398;2024-01-15T01:43:33;3.90;99.90
29237;DHT22;16266;50.866;4.398;2024-01-15T01:46:00;4.00;99.90
29237;DHT22;16266;50.866;4.398;2024-01-15T01:48:26;4.00;99.90
29237;DHT22;16266;50.866;4.398;2024-01-15T01:50:58;4.00;99.90
29237;DHT22;16266;50.866;4.398;2024-01-15T01:53:26;3.90;99.90
29237;DHT22;16266;50.866;4.398;2024-01-15T01:55:53;3.90;99.90
29237;DHT22;16266;50.866;4.398;2024-01-15T01:58:19;3.80;99.90
29237;DHT22;16266;50.866;4.398;2024-01-15T02:00:46;3.80;99.90
29237;DHT22;16266;50.866;4.398;2024-01-15T02:03:12;3.70;99.90
29237;DHT22;16266;50.866;4.398;2024-01-15T02:05:39;3.70;99.90
29237;DHT22;16266;50.866;4.398;2024-01-15T02:08:05;3.70;99.90
29237;DHT22;16266;50.866;4.398;2024-01-15T02:10:31;3.70;99.90
29237;DHT22;16266;50.866;4.398;2024-01-15T02:12:58;3.70;99.90
29237;DHT22;16266;50.866;4.398;2024-01-15T02:15:23;3.80;99.90
29237;DHT22;16266;50.866;4.398;2024-01-15T02:18:03;3.90;99.90
29237;DHT22;16266;50.866;4.398;2024-01-15T02:20:30;3.90;99.90
29237;DHT22;16266;50.866;4.398;2024-01-15T02:23:07;3.90;99.90
29237;DHT22;16266;50.866;4.398;2024-01-15T02:25:33;4.00;99.90
29237;DHT22;16266;50.866;4.398;2024-01-15T02:27:59;4.10;99.90
29237;DHT22;16266;50.866;4.398;2024-01-15T02:30:25;4.30;99.90
29237;DHT22;16266;50.866;4.398;2024-01-15T02:32:52;4.30;99.90
29237;DHT22;16266;50.866;4.398;2024-01-15T02:35:18;4.40;99.90
29237;DHT22;16266;50.866;4.398;2024-01-15T02:37:44;4.40;99.90
29237;DHT22;16266;50.866;4.398;2024-01-15T02:40:11;4.30;99.90
29237;DHT22;16266;50.866;4.398;2024-01-15T02:42:37;4.20;99.90
29237;DHT22;16266;50.866;4.398;2024-01-15T02:45:03;4.20;99.90
29237;DHT22;16266;50.866;4.398;2024-01-15T02:47:29;4.20;99.90
29237;DHT22;16266;50.866;4.398;2024-01-15T02:49:55;4.10;99.90
29237;DHT22;16266;50.866;4.398;2024-01-15T02:52:20;4.10;99.90
29237;DHT22;16266;50.866;4.398;2024-01-15T02:54:46;4.10;99.90
29237;DHT22;16266;50.866;4.398;2024-01-15T02:57:11;4.00;99.90
29237;DHT22;16266;50.866;4.398;2024-01-15T02:59:37;4.00;99.90
29237;DHT22;16266;50.866;4.398;2024-01-15T03:02:03;4.00;99.90
29237;DHT22;16266;50.866;4.398;2024-01-15T03:04:29;3.90;99.90
29237;DHT22;16266;50.866;4.398;2024-01-15T03:06:54;3.90;99.90
29237;DHT22;16266;50.866;4.398;2024-01-15T03:09:20;3.90;99.90
29237;DHT22;16266;50.866;4.398;2024-01-15T03:11:45;3.90;99.90
29237;DHT22;16266;50.866;4.398;2024-01-15T03:14:11;3.80;99.90
29237;DHT22;16266;50.866;4.398;2024-01-15T03:16:37;3.80;99.90
29237;DHT22;16266;50.866;4.398;2024-01-15T03:19:02;3.90;99.90
29237;DHT22;16266;50.866;4.398;2024-01-15T03:21:29;3.90;99.90
29237;DHT22;16266;50.866;4.398;2024-01-15T03:23:55;3.90;99.90
29237;DHT22;16266;50.866;4.398;2024-01-15T03:26:20;3.80;99.90
29237;DHT22;16266;50.866;4.398;2024-01-15T03:28:47;3.90;99.90
29237;DHT22;16266;50.866;4.398;2024-01-15T03:31:13;3.80;99.90
29237;DHT22;16266;50.866;4.398;2024-01-15T03:33:38;3.80;99.90
29237;DHT22;16266;50.866;4.398;2024-01-15T03:36:04;3.90;99.90
29237;DHT22;16266;50.866;4.398;2024-01-15T03:38:30;3.90;99.90
29237;DHT22;16266;50.866;4.398;2024-01-15T03:40:56;3.90;99.90
29237;DHT22;16266;50.866;4.398;2024-01-15T03:43:23;3.80;99.90
29237;DHT22;16266;50.866;4.398;2024-01-15T03:45:48;3.80;99.90
29237;DHT22;16266;50.866;4.398;2024-01-15T03:48:14;3.80;99.90
29237;DHT22;16266;50.866;4.398;2024-01-15T03:50:39;3.80;99.90
29237;DHT22;16266;50.866;4.398;2024-01-15T03:53:05;3.70;99.90
29237;DHT22;16266;50.866;4.398;2024-01-15T03:55:31;3.70;99.90
29237;DHT22;16266;50.866;4.398;2024-01-15T03:57:57;3.70;99.90
29237;DHT22;16266;50.866;4.398;2024-01-15T04:00:23;3.70;99.90
29237;DHT22;16266;50.866;4.398;2024-01-15T04:02:48;3.60;99.90
29237;DHT22;16266;50.866;4.398;2024-01-15T04:05:14;3.60;99.90
29237;DHT22;16266;50.866;4.398;2024-01-15T04:07:41;3.60;99.90
29237;DHT22;16266;50.866;4.398;2024-01-15T04:10:07;3.60;99.90
29237;DHT22;16266;50.866;4.398;2024-01-15T04:12:32;3.70;99.90
29237;DHT22;16266;50.866;4.398;2024-01-15T04:14:58;3.60;99.90
29237;DHT22;16266;50.866;4.398;2024-01-15T04:17:25;3.70;99.90
29237;DHT22;16266;50.866;4.398;2024-01-15T04:19:50;3.60;99.90
29237;DHT22;16266;50.866;4.398;2024-01-15T04:22:16;3.80;99.90
29237;DHT22;16266;50.866;4.398;2024-01-15T04:24:42;3.60;99.90
29237;DHT22;16266;50.866;4.398;2024-01-15T04:27:07;3.50;99.90
29237;DHT22;16266;50.866;4.398;2024-01-15T04:29:33;3.50;99.90
29237;DHT22;16266;50.866;4.398;2024-01-15T04:31:59;3.60;99.90
29237;DHT22;16266;50.866;4.398;2024-01-15T04:34:24;3.60;99.90
29237;DHT22;16266;50.866;4.398;2024-01-15T04:36:50;3.70;99.90
29237;DHT22;16266;50.866;4.398;2024-01-15T04:39:16;3.70;99.90
29237;DHT22;16266;50.866;4.398;2024-01-15T04:41:41;3.70;99.90
29237;DHT22;16266;50.866;4.398;2024-01-15T04:44:07;3.70;99.90
29237;DHT22;16266;50.866;4.398;2024-01-15T04:46:32;3.70;99.90
29237;DHT22;16266;50.866;4.398;2024-01-15T04:48:58;3.70;99.90
29237;DHT22;16266;50.866;4.398;2024-01-15T04:51:24;3.80;99.90
29237;DHT22;16266;50.866;4.398;2024-01-15T04:53:50;3.90;99.90
29237;DHT22;16266;50.866;4.398;2024-01-15T04:56:15;3.70;99.90
29237;DHT22;16266;50.866;4.398;2024-01-15T04:58:41;3.70;99.90
29237;DHT22;16266;50.866;4.398;2024-01-15T05:01:08;3.70;99.90
29237;DHT22;16266;50.866;4.398;2024-01-15T05:03:34;3.80;99.90
29237;DHT22;16266;50.866;4.398;2024-01-15T05:05:59;3.80;99.90
29237;DHT22;16266;50.866;4.398;2024-01-15T05:08:25;3.80;99.90
29237;DHT22;16266;50.866;4.398;2024-01-15T05:10:50;3.80;99.90
29237;DHT22;16266;50.866;4.398;2024-01-15T05:13:16;3.90;99.90
29237;DHT22;16266;50.866;4.398;2024-01-15T05:15:42;3.80;99.90
29237;DHT22;16266;50.866;4.398;2024-01-15T05:18:08;3.70;99.90
29237;DHT22;16266;50.866;4.398;2024-01-15T05:20:34;3.80;99.90
29237;DHT22;16266;50.866;4.398;2024-01-15T05:22:59;3.70;99.90
29237;DHT22;16266;50.866;4.398;2024-01-15T05:25:25;3.70;99.90
29237;DHT22;16266;50.866;4.398;2024-01-15T05:27:51;3.60;99.90
29237;DHT22;16266;50.866;4.398;2024-01-15T05:30:17;3.50;99.90
29237;DHT22;16266;50.866;4.398;2024-01-15T05:32:43;3.60;99.90
29237;DHT22;16266;50.866;4.398;2024-01-15T05:35:08;3.50;99.90
29237;DHT22;16266;50.866;4.398;2024-01-15T05:37:34;3.40;99.90
29237;DHT22;16266;50.866;4.398;2024-01-15T05:40:00;3.40;99.90
29237;DHT22;16266;50.866;4.398;2024-01-15T05:42:25;3.40;99.90
29237;DHT22;16266;50.866;4.398;2024-01-15T05:44:52;3.30;99.90
29237;DHT22;16266;50.866;4.398;2024-01-15T05:47:17;3.40;99.90
29237;DHT22;16266;50.866;4.398;2024-01-15T05:49:44;3.30;99.90
29237;DHT22;16266;50.866;4.398;2024-01-15T05:52:09;3.20;99.90
29237;DHT22;16266;50.866;4.398;2024-01-15T05:54:35;3.10;99.90
29237;DHT22;16266;50.866;4.398;2024-01-15T05:57:00;2.90;99.90
29237;DHT22;16266;50.866;4.398;2024-01-15T05:59:26;2.80;99.90
29237;DHT22;16266;50.866;4.398;2024-01-15T06:01:53;2.70;99.90
29237;DHT22;16266;50.866;4.398;2024-01-15T06:04:18;2.70;99.90
29237;DHT22;16266;50.866;4.398;2024-01-15T06:06:44;2.70;99.90
29237;DHT22;16266;50.866;4.398;2024-01-15T06:09:10;2.60;99.90
29237;DHT22;16266;50.866;4.398;2024-01-15T06:11:35;2.60;99.90
29237;DHT22;16266;50.866;4.398;2024-01-15T06:14:01;2.70;99.90
29237;DHT22;16266;50.866;4.398;2024-01-15T06:16:28;2.70;99.90
29237;DHT22;16266;50.866;4.398;2024-01-15T06:18:54;2.70;99.90
29237;DHT22;16266;50.866;4.398;2024-01-15T06:21:20;2.50;99.90
29237;DHT22;16266;50.866;4.398;2024-01-15T06:23:46;2.60;99.90
29237;DHT22;16266;50.866;4.398;2024-01-15T06:26:12;2.50;99.90
29237;DHT22;16266;50.866;4.398;2024-01-15T06:28:38;2.30;99.90
29237;DHT22;16266;50.866;4.398;2024-01-15T06:31:04;2.40;99.90
29237;DHT22;16266;50.866;4.398;2024-01-15T06:33:31;2.20;99.90
29237;DHT22;16266;50.866;4.398;2024-01-15T06:35:57;2.10;99.90
29237;DHT22;16266;50.866;4.398;2024-01-15T06:38:22;2.00;99.90
29237;DHT22;16266;50.866;4.398;2024-01-15T06:40:49;2.00;99.90
29237;DHT22;16266;50.866;4.398;2024-01-15T06:43:15;1.90;99.90
29237;DHT22;16266;50.866;4.398;2024-01-15T06:45:41;1.90;99.90
29237;DHT22;16266;50.866;4.398;2024-01-15T06:48:07;1.90;99.90
29237;DHT22;16266;50.866;4.398;2024-01-15T06:50:33;1.90;99.90
29237;DHT22;16266;50.866;4.398;2024-01-15T06:52:59;1.90;99.90
29237;DHT22;16266;50.866;4.398;2024-01-15T06:55:25;1.90;99.90
29237;DHT22;16266;50.866;4.398;2024-01-15T06:57:51;1.90;99.90
29237;DHT22;16266;50.866;4.398;2024-01-15T07:00:18;1.80;99.90
29237;DHT22;16266;50.866;4.398;2024-01-15T07:02:45;1.80;99.90
29237;DHT22;16266;50.866;4.398;2024-01-15T07:05:11;1.90;99.90
29237;DHT22;16266;50.866;4.398;2024-01-15T07:07:37;1.90;99.90
29237;DHT22;16266;50.866;4.398;2024-01-15T07:10:03;1.80;99.90
29237;DHT22;16266;50.866;4.398;2024-01-15T07:12:29;1.80;99.90
29237;DHT22;16266;50.866;4.398;2024-01-15T07:14:56;1.80;99.90
29237;DHT22;16266;50.866;4.398;2024-01-15T07:17:22;1.80;99.90
29237;DHT22;16266;50.866;4.398;2024-01-15T07:19:48;1.70;99.90
29237;DHT22;16266;50.866;4.398;2024-01-15T07:22:14;1.70;99.90
29237;DHT22;16266;50.866;4.398;2024-01-15T07:24:43;1.70;99.90
29237;DHT22;16266;50.866;4.398;2024-01-15T07:27:09;1.70;99.90
29237;DHT22;16266;50.866;4.398;2024-01-15T07:29:35;1.70;99.90
29237;DHT22;16266;50.866;4.398;2024-01-15T07:32:04;1.70;99.90
29237;DHT22;16266;50.866;4.398;2024-01-15T07:34:30;1.70;99.90
29237;DHT22;16266;50.866;4.398;2024-01-15T07:36:57;1.70;99.90
29237;DHT22;16266;50.866;4.398;2024-01-15T07:39:23;1.70;99.90
29237;DHT22;16266;50.866;4.398;2024-01-15T07:41:50;1.80;99.90
29237;DHT22;16266;50.866;4.398;2024-01-15T07:44:16;1.80;99.90
29237;DHT22;16266;50.866;4.398;2024-01-15T07:46:46;1.80;99.90
29237;DHT22;16266;50.866;4.398;2024-01-15T07:49:12;1.90;99.90
29237;DHT22;16266;50.866;4.398;2024-01-15T07:51:38;1.90;99.90
29237;DHT22;16266;50.866;4.398;2024-01-15T07:54:05;1.90;99.90
29237;DHT22;16266;50.866;4.398;2024-01-15T07:56:31;2.10;99.90
29237;DHT22;16266;50.866;4.398;2024-01-15T07:58:57;2.10;99.90
29237;DHT22;16266;50.866;4.398;2024-01-15T08:01:23;2.30;99.90
29237;DHT22;16266;50.866;4.398;2024-01-15T08:03:48;2.30;99.90
29237;DHT22;16266;50.866;4.398;2024-01-15T08:06:15;2.40;99.90
29237;DHT22;16266;50.866;4.398;2024-01-15T08:08:40;2.40;99.90
29237;DHT22;16266;50.866;4.398;2024-01-15T08:11:06;2.60;99.90
29237;DHT22;16266;50.866;4.398;2024-01-15T08:13:32;2.70;99.90
29237;DHT22;16266;50.866;4.398;2024-01-15T08:15:58;2.80;99.90
29237;DHT22;16266;50.866;4.398;2024-01-15T08:18:24;2.90;99.90
29237;DHT22;16266;50.866;4.398;2024-01-15T08:20:50;3.10;99.90
29237;DHT22;16266;50.866;4.398;2024-01-15T08:23:17;3.20;99.90
29237;DHT22;16266;50.866;4.398;2024-01-15T08:25:43;3.20;99.90
29237;DHT22;16266;50.866;4.398;2024-01-15T08:28:08;3.30;99.90
29237;DHT22;16266;50.866;4.398;2024-01-15T08:30:34;3.50;99.90
29237;DHT22;16266;50.866;4.398;2024-01-15T08:33:00;3.50;99.90
29237;DHT22;16266;50.866;4.398;2024-01-15T08:35:26;3.70;99.90
29237;DHT22;16266;50.866;4.398;2024-01-15T08:37:52;3.50;99.90
29237;DHT22;16266;50.866;4.398;2024-01-15T08:40:18;3.50;99.90
29237;DHT22;16266;50.866;4.398;2024-01-15T08:42:44;3.50;99.90
29237;DHT22;16266;50.866;4.398;2024-01-15T08:45:13;3.50;99.90
29237;DHT22;16266;50.866;4.398;2024-01-15T08:47:39;3.60;99.90
29237;DHT22;16266;50.866;4.398;2024-01-15T08:50:06;3.60;99.90
29237;DHT22;16266;50.866;4.398;2024-01-15T08:52:35;3.60;99.90
29237;DHT22;16266;50.866;4.398;2024-01-15T08:55:00;3.80;99.90
29237;DHT22;16266;50.866;4.398;2024-01-15T08:57:26;3.70;99.90
29237;DHT22;16266;50.866;4.398;2024-01-15T08:59:52;3.80;99.90
29237;DHT22;16266;50.866;4.398;2024-01-15T09:02:17;3.80;99.90
29237;DHT22;16266;50.866;4.398;2024-01-15T09:04:43;3.90;99.90
29237;DHT22;16266;50.866;4.398;2024-01-15T09:07:09;4.00;99.90
29237;DHT22;16266;50.866;4.398;2024-01-15T09:09:34;4.20;99.90
29237;DHT22;16266;50.866;4.398;2024-01-15T09:12:00;4.60;99.90
29237;DHT22;16266;50.866;4.398;2024-01-15T09:14:26;5.20;99.90
29237;DHT22;16266;50.866;4.398;2024-01-15T09:16:53;6.00;99.90
29237;DHT22;16266;50.866;4.398;2024-01-15T09:19:20;6.50;99.90
29237;DHT22;16266;50.866;4.398;2024-01-15T09:21:45;6.60;99.90
29237;DHT22;16266;50.866;4.398;2024-01-15T09:24:11;7.20;99.90
29237;DHT22;16266;50.866;4.398;2024-01-15T09:26:37;7.90;99.90
29237;DHT22;16266;50.866;4.398;2024-01-15T09:29:03;8.30;99.90
29237;DHT22;16266;50.866;4.398;2024-01-15T09:31:29;8.90;99.90
29237;DHT22;16266;50.866;4.398;2024-01-15T09:33:54;9.30;99.90
29237;DHT22;16266;50.866;4.398;2024-01-15T09:36:24;9.00;99.90
29237;DHT22;16266;50.866;4.398;2024-01-15T09:38:51;9.30;99.60
29237;DHT22;16266;50.866;4.398;2024-01-15T09:41:17;9.50;96.80
29237;DHT22;16266;50.866;4.398;2024-01-15T09:43:43;9.90;95.40
29237;DHT22;16266;50.866;4.398;2024-01-15T09:46:09;10.30;90.30
29237;DHT22;16266;50.866;4.398;2024-01-15T09:48:35;10.70;78.40
29237;DHT22;16266;50.866;4.398;2024-01-15T09:51:01;10.80;69.20
29237;DHT22;16266;50.866;4.398;2024-01-15T09:53:27;11.00;60.50
29237;DHT22;16266;50.866;4.398;2024-01-15T09:55:53;11.30;55.40
29237;DHT22;16266;50.866;4.398;2024-01-15T09:58:19;11.50;48.10
29237;DHT22;16266;50.866;4.398;2024-01-15T10:00:47;11.60;45.70
29237;DHT22;16266;50.866;4.398;2024-01-15T10:03:13;11.20;47.30
29237;DHT22;16266;50.866;4.398;2024-01-15T10:05:39;11.60;47.00
29237;DHT22;16266;50.866;4.398;2024-01-15T10:08:05;11.70;38.90
29237;DHT22;16266;50.866;4.398;2024-01-15T10:10:31;11.10;40.20
29237;DHT22;16266;50.866;4.398;2024-01-15T10:12:58;9.90;48.70
29237;DHT22;16266;50.866;4.398;2024-01-15T10:15:27;8.90;62.80
29237;DHT22;16266;50.866;4.398;2024-01-15T10:17:54;7.90;74.80
29237;DHT22;16266;50.866;4.398;2024-01-15T10:20:20;7.30;87.10
29237;DHT22;16266;50.866;4.398;2024-01-15T10:22:50;6.90;94.10
29237;DHT22;16266;50.866;4.398;2024-01-15T10:25:16;7.20;96.90
29237;DHT22;16266;50.866;4.398;2024-01-15T10:28:02;7.70;89.50
29237;DHT22;16266;50.866;4.398;2024-01-15T10:30:28;8.60;72.90
29237;DHT22;16266;50.866;4.398;2024-01-15T10:32:58;9.30;66.20
29237;DHT22;16266;50.866;4.398;2024-01-15T10:35:30;9.70;56.80
29237;DHT22;16266;50.866;4.398;2024-01-15T10:37:56;9.40;56.70
29237;DHT22;16266;50.866;4.398;2024-01-15T10:40:22;9.50;52.10
29237;DHT22;16266;50.866;4.398;2024-01-15T10:42:48;9.70;52.30
29237;DHT22;16266;50.866;4.398;2024-01-15T10:45:14;9.70;48.60
29237;DHT22;16266;50.866;4.398;2024-01-15T10:47:41;9.70;52.00
29237;DHT22;16266;50.866;4.398;2024-01-15T10:50:07;9.60;49.10
29237;DHT22;16266;50.866;4.398;2024-01-15T10:52:38;9.90;51.50
29237;DHT22;16266;50.866;4.398;2024-01-15T10:55:07;10.20;43.70
29237;DHT22;16266;50.866;4.398;2024-01-15T10:57:38;10.60;43.00
29237;DHT22;16266;50.866;4.398;2024-01-15T11:00:04;10.30;43.20
29237;DHT22;16266;50.866;4.398;2024-01-15T11:02:36;10.00;46.10
29237;DHT22;16266;50.866;4.398;2024-01-15T11:05:03;10.20;43.00
29237;DHT22;16266;50.866;4.398;2024-01-15T11:07:30;10.80;39.40
29237;DHT22;16266;50.866;4.398;2024-01-15T11:09:56;10.70;36.10
29237;DHT22;16266;50.866;4.398;2024-01-15T11:12:24;10.40;36.80
29237;DHT22;16266;50.866;4.398;2024-01-15T11:14:50;10.10;43.00
29237;DHT22;16266;50.866;4.398;2024-01-15T11:17:17;9.70;48.10
29237;DHT22;16266;50.866;4.398;2024-01-15T11:19:47;9.80;46.90
29237;DHT22;16266;50.866;4.398;2024-01-15T11:25:13;8.90;52.30
29237;DHT22;16266;50.866;4.398;2024-01-15T11:27:52;8.10;60.10
29237;DHT22;16266;50.866;4.398;2024-01-15T11:30:18;7.50;66.40
29237;DHT22;16266;50.866;4.398;2024-01-15T11:32:47;7.30;77.20
29237;DHT22;16266;50.866;4.398;2024-01-15T11:35:13;7.20;73.30
29237;DHT22;16266;50.866;4.398;2024-01-15T11:43:02;7.70;61.10
29237;DHT22;16266;50.866;4.398;2024-01-15T11:45:30;7.70;60.30
29237;DHT22;16266;50.866;4.398;2024-01-15T11:48:14;7.70;61.60
29237;DHT22;16266;50.866;4.398;2024-01-15T11:55:44;8.70;52.30
29237;DHT22;16266;50.866;4.398;2024-01-15T11:58:11;8.70;49.70
29237;DHT22;16266;50.866;4.398;2024-01-15T12:00:52;8.60;54.70
29237;DHT22;16266;50.866;4.398;2024-01-15T12:03:21;8.30;55.20
29237;DHT22;16266;50.866;4.398;2024-01-15T12:05:48;8.30;50.30
29237;DHT22;16266;50.866;4.398;2024-01-15T12:08:13;8.00;47.50
29237;DHT22;16266;50.866;4.398;2024-01-15T12:10:40;7.80;51.80
29237;DHT22;16266;50.866;4.398;2024-01-15T12:13:13;7.30;55.60
29237;DHT22;16266;50.866;4.398;2024-01-15T12:15:39;6.90;61.40
29237;DHT22;16266;50.866;4.398;2024-01-15T12:18:09;7.10;66.30
29237;DHT22;16266;50.866;4.398;2024-01-15T12:20:36;7.50;66.00
29237;DHT22;16266;50.866;4.398;2024-01-15T12:23:02;7.20;64.40
29237;DHT22;16266;50.866;4.398;2024-01-15T12:25:35;6.80;66.90
29237;DHT22;16266;50.866;4.398;2024-01-15T12:28:02;6.60;71.90
29237;DHT22;16266;50.866;4.398;2024-01-15T12:30:29;6.40;77.90
29237;DHT22;16266;50.866;4.398;2024-01-15T12:32:55;6.30;79.40
29237;DHT22;16266;50.866;4.398;2024-01-15T12:35:21;6.70;78.10
29237;DHT22;16266;50.866;4.398;2024-01-15T12:37:47;7.00;70.60
29237;DHT22;16266;50.866;4.398;2024-01-15T12:40:13;6.80;67.80
29237;DHT22;16266;50.866;4.398;2024-01-15T12:42:43;6.60;76.10
29237;DHT22;16266;50.866;4.398;2024-01-15T12:45:11;6.40;82.90
29237;DHT22;16266;50.866;4.398;2024-01-15T12:47:37;5.80;99.90
29237;DHT22;16266;50.866;4.398;2024-01-15T12:50:06;4.90;99.90
29237;DHT22;16266;50.866;4.398;2024-01-15T12:52:33;4.50;99.90
29237;DHT22;16266;50.866;4.398;2024-01-15T12:54:58;4.50;99.90
29237;DHT22;16266;50.866;4.398;2024-01-15T12:57:24;4.70;99.90
29237;DHT22;16266;50.866;4.398;2024-01-15T12:59:50;4.80;99.90
29237;DHT22;16266;50.866;4.398;2024-01-15T13:02:16;4.90;99.90
29237;DHT22;16266;50.866;4.398;2024-01-15T13:04:42;4.90;99.90
29237;DHT22;16266;50.866;4.398;2024-01-15T13:07:08;4.90;99.90
29237;DHT22;16266;50.866;4.398;2024-01-15T13:09:34;4.90;99.90
29237;DHT22;16266;50.866;4.398;2024-01-15T13:12:03;4.90;99.90
29237;DHT22;16266;50.866;4.398;2024-01-15T13:14:29;4.90;99.90
29237;DHT22;16266;50.866;4.398;2024-01-15T13:16:55;4.90;99.90
29237;DHT22;16266;50.866;4.398;2024-01-15T13:19:21;4.80;99.90
29237;DHT22;16266;50.866;4.398;2024-01-15T13:21:48;4.90;99.90
29237;DHT22;16266;50.866;4.398;2024-01-15T13:24:14;5.00;99.90
29237;DHT22;16266;50.866;4.398;2024-01-15T13:26:40;5.00;99.90
29237;DHT22;16266;50.866;4.398;2024-01-15T13:29:06;4.90;99.90
29237;DHT22;16266;50.866;4.398;2024-01-15T13:31:35;4.90;99.90
29237;DHT22;16266;50.866;4.398;2024-01-15T13:34:00;5.10;99.90
29237;DHT22;16266;50.866;4.398;2024-01-15T13:36:26;5.30;99.90
29237;DHT22;16266;50.866;4.398;2024-01-15T13:38:53;5.50;99.90
29237;DHT22;16266;50.866;4.398;2024-01-15T13:41:22;5.60;99.90
29237;DHT22;16266;50.866;4.398;2024-01-15T13:43:51;5.80;99.90
29237;DHT22;16266;50.866;4.398;2024-01-15T13:46:19;5.80;99.90
29237;DHT22;16266;50.866;4.398;2024-01-15T13:48:45;5.90;99.90
29237;DHT22;16266;50.866;4.398;2024-01-15T13:51:11;6.00;99.90
29237;DHT22;16266;50.866;4.398;2024-01-15T13:53:40;6.10;99.90
29237;DHT22;16266;50.866;4.398;2024-01-15T13:56:07;6.20;99.90
29237;DHT22;16266;50.866;4.398;2024-01-15T13:58:33;5.90;99.90
29237;DHT22;16266;50.866;4.398;2024-01-15T14:01:00;4.80;99.90
29237;DHT22;16266;50.866;4.398;2024-01-15T14:03:25;4.10;99.90
29237;DHT22;16266;50.866;4.398;2024-01-15T14:05:52;3.40;99.90
29237;DHT22;16266;50.866;4.398;2024-01-15T14:08:18;3.00;99.90
29237;DHT22;16266;50.866;4.398;2024-01-15T14:10:43;2.90;99.90
29237;DHT22;16266;50.866;4.398;2024-01-15T14:13:09;3.10;99.90
29237;DHT22;16266;50.866;4.398;2024-01-15T14:15:35;3.40;99.90
29237;DHT22;16266;50.866;4.398;2024-01-15T14:18:01;3.60;99.90
29237;DHT22;16266;50.866;4.398;2024-01-15T14:20:27;3.80;99.90
29237;DHT22;16266;50.866;4.398;2024-01-15T14:22:53;4.10;99.90
29237;DHT22;16266;50.866;4.398;2024-01-15T14:25:20;4.40;99.90
29237;DHT22;16266;50.866;4.398;2024-01-15T14:27:46;4.50;99.90
29237;DHT22;16266;50.866;4.398;2024-01-15T14:30:12;4.70;99.90
29237;DHT22;16266;50.866;4.398;2024-01-15T14:32:39;4.70;99.90
29237;DHT22;16266;50.866;4.398;2024-01-15T14:35:05;4.50;99.90
29237;DHT22;16266;50.866;4.398;2024-01-15T14:37:31;4.10;99.90
29237;DHT22;16266;50.866;4.398;2024-01-15T14:39:57;3.70;99.90
29237;DHT22;16266;50.866;4.398;2024-01-15T14:42:23;3.60;99.90
29237;DHT22;16266;50.866;4.398;2024-01-15T14:44:49;3.20;99.90
29237;DHT22;16266;50.866;4.398;2024-01-15T14:47:15;3.10;99.90
29237;DHT22;16266;50.866;4.398;2024-01-15T14:49:42;2.90;99.90
29237;DHT22;16266;50.866;4.398;2024-01-15T14:52:07;3.00;99.90
29237;DHT22;16266;50.866;4.398;2024-01-15T14:54:33;3.00;99.90
29237;DHT22;16266;50.866;4.398;2024-01-15T14:56:59;2.90;99.90
29237;DHT22;16266;50.866;4.398;2024-01-15T14:59:24;3.00;99.90
29237;DHT22;16266;50.866;4.398;2024-01-15T15:01:50;2.80;99.90
29237;DHT22;16266;50.866;4.398;2024-01-15T15:04:16;2.80;99.90
29237;DHT22;16266;50.866;4.398;2024-01-15T15:06:41;2.70;99.90
29237;DHT22;16266;50.866;4.398;2024-01-15T15:09:07;2.60;99.90
29237;DHT22;16266;50.866;4.398;2024-01-15T15:11:35;2.60;99.90
29237;DHT22;16266;50.866;4.398;2024-01-15T15:14:02;2.60;99.90
29237;DHT22;16266;50.866;4.398;2024-01-15T15:16:29;2.50;99.90
29237;DHT22;16266;50.866;4.398;2024-01-15T15:18:55;2.50;99.90
29237;DHT22;16266;50.866;4.398;2024-01-15T15:21:22;2.60;99.90
29237;DHT22;16266;50.866;4.398;2024-01-15T15:23:48;2.40;99.90
29237;DHT22;16266;50.866;4.398;2024-01-15T15:26:13;2.40;99.90
29237;DHT22;16266;50.866;4.398;2024-01-15T15:28:40;2.40;99.90
29237;DHT22;16266;50.866;4.398;2024-01-15T15:31:06;2.40;99.90
29237;DHT22;16266;50.866;4.398;2024-01-15T15:33:37;2.50;99.90
29237;DHT22;16266;50.866;4.398;2024-01-15T15:36:03;2.70;99.90
29237;DHT22;16266;50.866;4.398;2024-01-15T15:38:32;2.60;99.90
29237;DHT22;16266;50.866;4.398;2024-01-15T15:40:58;2.60;99.90
29237;DHT22;16266;50.866;4.398;2024-01-15T15:43:27;2.60;99.90
29237;DHT22;16266;50.866;4.398;2024-01-15T15:45:53;2.70;99.90
29237;DHT22;16266;50.866;4.398;2024-01-15T15:48:20;2.60;99.90
29237;DHT22;16266;50.866;4.398;2024-01-15T15:50:46;2.60;99.90
29237;DHT22;16266;50.866;4.398;2024-01-15T15:53:12;2.60;99.90